Weather at McCarran International Airport

Public forecast

Using degrees Fahrenheit for public forecast. Weather courtesy of forecast.io.

Current aviation weather report (METAR) for McCarran International Airport

Retrieved 2022/06/30 09:56 UTC (59 minutes ago):

KLAS 300956Z 19010G19KT 10SM FEW170 BKN200 32/04 A2991 RMK AO2 SLP094 T03220039

Aviation forecast (TAF) for McCarran International Airport

Retrieved 2022/06/30 06:22 UTC (5 hours ago):

TAF KLAS 300520Z 3006/0112 23011KT P6SM FEW140 FM300900 20008KT P6SM SKC FM301600 21015G25KT P6SM FEW140 FM010400 22010KT P6SM SKC